sensor_id;sensor_type;location;lat;lon;timestamp;temperature;humidity
78345;DHT22;67620;51.134;6.548;2023-02-28T00:00:25;2.20;60.60
78345;DHT22;67620;51.134;6.548;2023-02-28T00:02:51;2.20;61.00
78345;DHT22;67620;51.134;6.548;2023-02-28T00:05:20;2.20;60.90
78345;DHT22;67620;51.134;6.548;2023-02-28T00:07:46;2.20;60.90
78345;DHT22;67620;51.134;6.548;2023-02-28T00:10:14;2.20;60.90
78345;DHT22;67620;51.134;6.548;2023-02-28T00:12:41;2.10;61.10
78345;DHT22;67620;51.134;6.548;2023-02-28T00:15:08;2.10;61.10
78345;DHT22;67620;51.134;6.548;2023-02-28T00:17:34;2.10;61.30
78345;DHT22;67620;51.134;6.548;2023-02-28T00:20:00;2.10;61.20
78345;DHT22;67620;51.134;6.548;2023-02-28T00:22:28;2.10;61.20
78345;DHT22;67620;51.134;6.548;2023-02-28T00:24:54;2.10;61.10
78345;DHT22;67620;51.134;6.548;2023-02-28T00:27:19;2.10;61.10
78345;DHT22;67620;51.134;6.548;2023-02-28T00:29:46;2.10;61.00
78345;DHT22;67620;51.134;6.548;2023-02-28T00:32:12;2.10;60.90
78345;DHT22;67620;51.134;6.548;2023-02-28T00:34:37;2.10;60.90
78345;DHT22;67620;51.134;6.548;2023-02-28T00:37:05;2.00;61.00
78345;DHT22;67620;51.134;6.548;2023-02-28T00:39:31;2.00;60.90
78345;DHT22;67620;51.134;6.548;2023-02-28T00:41:56;1.90;61.20
78345;DHT22;67620;51.134;6.548;2023-02-28T00:44:22;1.90;61.10
78345;DHT22;67620;51.134;6.548;2023-02-28T00:46:47;1.90;61.30
78345;DHT22;67620;51.134;6.548;2023-02-28T00:49:13;1.80;61.40
78345;DHT22;67620;51.134;6.548;2023-02-28T00:51:38;1.80;61.30
78345;DHT22;67620;51.134;6.548;2023-02-28T00:54:04;1.80;61.50
78345;DHT22;67620;51.134;6.548;2023-02-28T00:56:29;1.70;61.70
78345;DHT22;67620;51.134;6.548;2023-02-28T00:58:55;1.70;61.60
78345;DHT22;67620;51.134;6.548;2023-02-28T01:01:20;1.70;61.80
78345;DHT22;67620;51.134;6.548;2023-02-28T01:03:46;1.60;61.70
78345;DHT22;67620;51.134;6.548;2023-02-28T01:06:11;1.60;62.00
78345;DHT22;67620;51.134;6.548;2023-02-28T01:08:37;1.60;61.90
78345;DHT22;67620;51.134;6.548;2023-02-28T01:11:10;1.60;61.80
78345;DHT22;67620;51.134;6.548;2023-02-28T01:13:37;1.60;61.70
78345;DHT22;67620;51.134;6.548;2023-02-28T01:16:02;1.60;61.90
78345;DHT22;67620;51.134;6.548;2023-02-28T01:18:28;1.50;62.20
78345;DHT22;67620;51.134;6.548;2023-02-28T01:20:54;1.50;62.30
78345;DHT22;67620;51.134;6.548;2023-02-28T01:23:21;1.50;62.30
78345;DHT22;67620;51.134;6.548;2023-02-28T01:25:51;1.60;62.20
78345;DHT22;67620;51.134;6.548;2023-02-28T01:28:17;1.60;62.00
78345;DHT22;67620;51.134;6.548;2023-02-28T01:30:42;1.50;61.90
78345;DHT22;67620;51.134;6.548;2023-02-28T01:33:08;1.50;62.20
78345;DHT22;67620;51.134;6.548;2023-02-28T01:35:35;1.50;61.70
78345;DHT22;67620;51.134;6.548;2023-02-28T01:38:01;1.40;61.80
78345;DHT22;67620;51.134;6.548;2023-02-28T01:40:27;1.40;61.80
78345;DHT22;67620;51.134;6.548;2023-02-28T01:42:52;1.30;61.80
78345;DHT22;67620;51.134;6.548;2023-02-28T01:45:22;1.30;61.90
78345;DHT22;67620;51.134;6.548;2023-02-28T01:47:52;1.30;61.80
78345;DHT22;67620;51.134;6.548;2023-02-28T01:50:22;1.30;62.00
78345;DHT22;67620;51.134;6.548;2023-02-28T01:52:49;1.20;62.20
78345;DHT22;67620;51.134;6.548;2023-02-28T01:55:16;1.20;62.30
78345;DHT22;67620;51.134;6.548;2023-02-28T01:57:47;1.20;62.40
78345;DHT22;67620;51.134;6.548;2023-02-28T02:00:16;1.20;62.30
78345;DHT22;67620;51.134;6.548;2023-02-28T02:02:44;1.10;62.30
78345;DHT22;67620;51.134;6.548;2023-02-28T02:07:43;1.10;62.60
78345;DHT22;67620;51.134;6.548;2023-02-28T02:10:14;1.10;62.60
78345;DHT22;67620;51.134;6.548;2023-02-28T02:15:30;1.10;63.00
78345;DHT22;67620;51.134;6.548;2023-02-28T02:26:58;1.10;63.60
78345;DHT22;67620;51.134;6.548;2023-02-28T02:32:54;1.10;64.40
78345;DHT22;67620;51.134;6.548;2023-02-28T02:35:31;1.10;64.80
78345;DHT22;67620;51.134;6.548;2023-02-28T02:41:14;1.10;64.80
78345;DHT22;67620;51.134;6.548;2023-02-28T02:43:53;1.10;65.20
78345;DHT22;67620;51.134;6.548;2023-02-28T02:46:43;1.10;65.30
78345;DHT22;67620;51.134;6.548;2023-02-28T02:49:15;1.00;65.40
78345;DHT22;67620;51.134;6.548;2023-02-28T02:51:42;1.10;65.50
78345;DHT22;67620;51.134;6.548;2023-02-28T02:54:17;1.00;65.60
78345;DHT22;67620;51.134;6.548;2023-02-28T02:56:47;1.10;65.40
78345;DHT22;67620;51.134;6.548;2023-02-28T02:59:16;1.10;65.20
78345;DHT22;67620;51.134;6.548;2023-02-28T03:01:50;1.10;65.30
78345;DHT22;67620;51.134;6.548;2023-02-28T03:04:21;1.00;65.60
78345;DHT22;67620;51.134;6.548;2023-02-28T03:06:48;1.00;65.40
78345;DHT22;67620;51.134;6.548;2023-02-28T03:09:15;1.00;65.20
78345;DHT22;67620;51.134;6.548;2023-02-28T03:11:41;1.00;65.10
78345;DHT22;67620;51.134;6.548;2023-02-28T03:17:13;0.90;65.10
78345;DHT22;67620;51.134;6.548;2023-02-28T03:20:13;0.90;65.50
78345;DHT22;67620;51.134;6.548;2023-02-28T03:22:46;0.90;65.40
78345;DHT22;67620;51.134;6.548;2023-02-28T03:25:32;0.90;65.30
78345;DHT22;67620;51.134;6.548;2023-02-28T03:31:38;0.90;65.40
78345;DHT22;67620;51.134;6.548;2023-02-28T03:33:42;0.90;65.50
78345;DHT22;67620;51.134;6.548;2023-02-28T03:36:17;0.80;65.60
78345;DHT22;67620;51.134;6.548;2023-02-28T03:41:21;0.80;65.60
78345;DHT22;67620;51.134;6.548;2023-02-28T03:44:15;0.80;65.90
78345;DHT22;67620;51.134;6.548;2023-02-28T03:46:49;0.80;66.00
78345;DHT22;67620;51.134;6.548;2023-02-28T03:49:21;0.80;66.20
78345;DHT22;67620;51.134;6.548;2023-02-28T03:51:49;0.80;66.10
78345;DHT22;67620;51.134;6.548;2023-02-28T03:54:20;0.80;66.10
78345;DHT22;67620;51.134;6.548;2023-02-28T03:57:00;0.80;66.00
78345;DHT22;67620;51.134;6.548;2023-02-28T03:59:42;0.80;65.90
78345;DHT22;67620;51.134;6.548;2023-02-28T04:02:09;0.80;66.20
78345;DHT22;67620;51.134;6.548;2023-02-28T04:04:34;0.80;66.40
78345;DHT22;67620;51.134;6.548;2023-02-28T04:07:06;0.70;66.80
78345;DHT22;67620;51.134;6.548;2023-02-28T04:09:32;0.60;67.10
78345;DHT22;67620;51.134;6.548;2023-02-28T04:11:58;0.60;67.30
78345;DHT22;67620;51.134;6.548;2023-02-28T04:14:24;0.60;67.40
78345;DHT22;67620;51.134;6.548;2023-02-28T04:16:49;0.60;67.30
78345;DHT22;67620;51.134;6.548;2023-02-28T04:19:16;0.60;67.30
78345;DHT22;67620;51.134;6.548;2023-02-28T04:21:44;0.60;67.20
78345;DHT22;67620;51.134;6.548;2023-02-28T04:24:12;0.60;67.00
78345;DHT22;67620;51.134;6.548;2023-02-28T04:26:43;0.60;67.20
78345;DHT22;67620;51.134;6.548;2023-02-28T04:29:10;0.60;67.10
78345;DHT22;67620;51.134;6.548;2023-02-28T04:31:37;0.60;67.30
78345;DHT22;67620;51.134;6.548;2023-02-28T04:34:03;0.50;67.20
78345;DHT22;67620;51.134;6.548;2023-02-28T04:36:29;0.50;67.40
78345;DHT22;67620;51.134;6.548;2023-02-28T04:38:54;0.50;67.40
78345;DHT22;67620;51.134;6.548;2023-02-28T04:41:21;0.60;67.10
78345;DHT22;67620;51.134;6.548;2023-02-28T04:43:46;0.50;67.10
78345;DHT22;67620;51.134;6.548;2023-02-28T04:46:12;0.50;67.10
78345;DHT22;67620;51.134;6.548;2023-02-28T04:48:38;0.50;66.80
78345;DHT22;67620;51.134;6.548;2023-02-28T04:51:05;0.60;66.80
78345;DHT22;67620;51.134;6.548;2023-02-28T04:53:31;0.60;66.90
78345;DHT22;67620;51.134;6.548;2023-02-28T04:55:57;0.60;66.60
78345;DHT22;67620;51.134;6.548;2023-02-28T04:58:23;0.50;66.80
78345;DHT22;67620;51.134;6.548;2023-02-28T05:00:50;0.50;66.70
78345;DHT22;67620;51.134;6.548;2023-02-28T05:03:15;0.50;66.40
78345;DHT22;67620;51.134;6.548;2023-02-28T05:05:40;0.50;66.50
78345;DHT22;67620;51.134;6.548;2023-02-28T05:08:06;0.60;66.30
78345;DHT22;67620;51.134;6.548;2023-02-28T05:10:32;0.50;66.30
78345;DHT22;67620;51.134;6.548;2023-02-28T05:12:57;0.50;66.40
78345;DHT22;67620;51.134;6.548;2023-02-28T05:15:23;0.50;66.20
78345;DHT22;67620;51.134;6.548;2023-02-28T05:17:49;0.50;66.10
78345;DHT22;67620;51.134;6.548;2023-02-28T05:20:15;0.50;66.00
78345;DHT22;67620;51.134;6.548;2023-02-28T05:22:41;0.50;65.90
78345;DHT22;67620;51.134;6.548;2023-02-28T05:25:12;0.50;65.60
78345;DHT22;67620;51.134;6.548;2023-02-28T05:27:38;0.50;65.50
78345;DHT22;67620;51.134;6.548;2023-02-28T05:30:05;0.30;65.30
78345;DHT22;67620;51.134;6.548;2023-02-28T05:32:31;0.30;65.20
78345;DHT22;67620;51.134;6.548;2023-02-28T05:34:57;0.30;64.90
78345;DHT22;67620;51.134;6.548;2023-02-28T05:37:22;0.20;65.00
78345;DHT22;67620;51.134;6.548;2023-02-28T05:39:48;0.20;65.00
78345;DHT22;67620;51.134;6.548;2023-02-28T05:42:13;0.20;64.80
78345;DHT22;67620;51.134;6.548;2023-02-28T05:44:39;0.20;64.70
78345;DHT22;67620;51.134;6.548;2023-02-28T05:47:04;0.10;65.00
78345;DHT22;67620;51.134;6.548;2023-02-28T05:49:30;0.10;65.00
78345;DHT22;67620;51.134;6.548;2023-02-28T05:51:55;0.10;65.10
78345;DHT22;67620;51.134;6.548;2023-02-28T05:54:21;0.20;65.10
78345;DHT22;67620;51.134;6.548;2023-02-28T05:56:46;0.20;65.20
78345;DHT22;67620;51.134;6.548;2023-02-28T05:59:12;0.20;65.10
78345;DHT22;67620;51.134;6.548;2023-02-28T06:01:43;0.20;65.10
78345;DHT22;67620;51.134;6.548;2023-02-28T06:04:18;0.10;65.30
78345;DHT22;67620;51.134;6.548;2023-02-28T06:06:45;0.10;65.40
78345;DHT22;67620;51.134;6.548;2023-02-28T06:09:11;0.10;65.70
78345;DHT22;67620;51.134;6.548;2023-02-28T06:11:36;0.10;65.60
78345;DHT22;67620;51.134;6.548;2023-02-28T06:14:02;0.10;65.80
78345;DHT22;67620;51.134;6.548;2023-02-28T06:16:29;0.10;65.60
78345;DHT22;67620;51.134;6.548;2023-02-28T06:18:58;0.10;65.70
78345;DHT22;67620;51.134;6.548;2023-02-28T06:21:24;0.10;65.70
78345;DHT22;67620;51.134;6.548;2023-02-28T06:23:50;0.10;66.00
78345;DHT22;67620;51.134;6.548;2023-02-28T06:26:15;0.10;65.80
78345;DHT22;67620;51.134;6.548;2023-02-28T06:28:41;0.10;66.00
78345;DHT22;67620;51.134;6.548;2023-02-28T06:31:12;0.00;66.00
78345;DHT22;67620;51.134;6.548;2023-02-28T06:33:38;0.00;66.10
78345;DHT22;67620;51.134;6.548;2023-02-28T06:36:05;0.00;66.10
78345;DHT22;67620;51.134;6.548;2023-02-28T06:38:31;0.00;66.40
78345;DHT22;67620;51.134;6.548;2023-02-28T06:40:58;0.00;66.50
78345;DHT22;67620;51.134;6.548;2023-02-28T06:43:25;0.00;66.40
78345;DHT22;67620;51.134;6.548;2023-02-28T06:45:55;0.00;66.30
78345;DHT22;67620;51.134;6.548;2023-02-28T06:48:21;0.00;66.00
78345;DHT22;67620;51.134;6.548;2023-02-28T06:50:47;0.00;66.00
78345;DHT22;67620;51.134;6.548;2023-02-28T06:53:12;0.00;66.20
78345;DHT22;67620;51.134;6.548;2023-02-28T06:55:39;0.00;65.80
78345;DHT22;67620;51.134;6.548;2023-02-28T06:58:05;0.10;65.80
78345;DHT22;67620;51.134;6.548;2023-02-28T07:00:43;0.10;65.50
78345;DHT22;67620;51.134;6.548;2023-02-28T07:03:09;0.10;65.40
78345;DHT22;67620;51.134;6.548;2023-02-28T07:05:36;0.10;65.60
78345;DHT22;67620;51.134;6.548;2023-02-28T07:08:03;0.10;65.70
78345;DHT22;67620;51.134;6.548;2023-02-28T07:10:29;0.20;65.30
78345;DHT22;67620;51.134;6.548;2023-02-28T07:12:55;0.20;65.20
78345;DHT22;67620;51.134;6.548;2023-02-28T07:15:20;0.20;65.20
78345;DHT22;67620;51.134;6.548;2023-02-28T07:17:46;0.20;65.10
78345;DHT22;67620;51.134;6.548;2023-02-28T07:20:12;0.20;65.10
78345;DHT22;67620;51.134;6.548;2023-02-28T07:22:37;0.20;65.20
78345;DHT22;67620;51.134;6.548;2023-02-28T07:25:04;0.30;65.20
78345;DHT22;67620;51.134;6.548;2023-02-28T07:27:30;0.30;64.80
78345;DHT22;67620;51.134;6.548;2023-02-28T07:29:56;0.40;64.50
78345;DHT22;67620;51.134;6.548;2023-02-28T07:32:21;0.40;64.60
78345;DHT22;67620;51.134;6.548;2023-02-28T07:34:47;0.40;64.40
78345;DHT22;67620;51.134;6.548;2023-02-28T07:37:13;0.40;64.10
78345;DHT22;67620;51.134;6.548;2023-02-28T07:39:39;0.50;63.90
78345;DHT22;67620;51.134;6.548;2023-02-28T07:42:08;0.50;63.40
78345;DHT22;67620;51.134;6.548;2023-02-28T07:44:36;0.50;63.30
78345;DHT22;67620;51.134;6.548;2023-02-28T07:47:06;0.60;63.00
78345;DHT22;67620;51.134;6.548;2023-02-28T07:49:32;0.70;62.90
78345;DHT22;67620;51.134;6.548;2023-02-28T07:51:57;0.80;62.60
78345;DHT22;67620;51.134;6.548;2023-02-28T07:54:23;0.90;62.50
78345;DHT22;67620;51.134;6.548;2023-02-28T07:56:48;1.00;62.20
78345;DHT22;67620;51.134;6.548;2023-02-28T07:59:14;1.10;61.50
78345;DHT22;67620;51.134;6.548;2023-02-28T08:01:39;1.10;60.80
78345;DHT22;67620;51.134;6.548;2023-02-28T08:04:05;1.30;60.50
78345;DHT22;67620;51.134;6.548;2023-02-28T08:06:30;1.40;60.00
78345;DHT22;67620;51.134;6.548;2023-02-28T08:08:56;1.50;58.80
78345;DHT22;67620;51.134;6.548;2023-02-28T08:11:21;3.40;54.90
78345;DHT22;67620;51.134;6.548;2023-02-28T08:13:47;5.70;48.10
78345;DHT22;67620;51.134;6.548;2023-02-28T08:16:14;6.10;45.40
78345;DHT22;67620;51.134;6.548;2023-02-28T08:18:42;4.80;47.70
78345;DHT22;67620;51.134;6.548;2023-02-28T08:21:09;3.80;49.70
78345;DHT22;67620;51.134;6.548;2023-02-28T08:23:35;3.30;50.70
78345;DHT22;67620;51.134;6.548;2023-02-28T08:26:01;3.10;51.20
78345;DHT22;67620;51.134;6.548;2023-02-28T08:28:27;3.20;49.40
78345;DHT22;67620;51.134;6.548;2023-02-28T08:30:52;6.00;45.50
78345;DHT22;67620;51.134;6.548;2023-02-28T08:33:18;8.20;40.90
78345;DHT22;67620;51.134;6.548;2023-02-28T08:35:44;9.60;38.70
78345;DHT22;67620;51.134;6.548;2023-02-28T08:38:09;10.50;36.70
78345;DHT22;67620;51.134;6.548;2023-02-28T08:40:35;10.90;35.10
78345;DHT22;67620;51.134;6.548;2023-02-28T08:43:00;11.50;33.90
78345;DHT22;67620;51.134;6.548;2023-02-28T08:45:26;11.70;33.10
78345;DHT22;67620;51.134;6.548;2023-02-28T08:47:53;12.20;32.20
78345;DHT22;67620;51.134;6.548;2023-02-28T08:50:19;12.60;31.40
78345;DHT22;67620;51.134;6.548;2023-02-28T08:52:45;12.80;30.80
78345;DHT22;67620;51.134;6.548;2023-02-28T08:55:10;12.90;31.50
78345;DHT22;67620;51.134;6.548;2023-02-28T08:57:36;13.80;30.10
78345;DHT22;67620;51.134;6.548;2023-02-28T09:00:03;14.20;29.90
78345;DHT22;67620;51.134;6.548;2023-02-28T09:02:32;14.70;29.30
78345;DHT22;67620;51.134;6.548;2023-02-28T09:04:58;14.80;27.90
78345;DHT22;67620;51.134;6.548;2023-02-28T09:07:24;15.10;28.30
78345;DHT22;67620;51.134;6.548;2023-02-28T09:09:50;14.90;27.60
78345;DHT22;67620;51.134;6.548;2023-02-28T09:12:27;15.30;26.60
78345;DHT22;67620;51.134;6.548;2023-02-28T09:14:56;15.70;26.30
78345;DHT22;67620;51.134;6.548;2023-02-28T09:17:22;16.00;26.50
78345;DHT22;67620;51.134;6.548;2023-02-28T09:19:48;15.30;25.50
78345;DHT22;67620;51.134;6.548;2023-02-28T09:22:14;12.80;27.90
78345;DHT22;67620;51.134;6.548;2023-02-28T09:24:40;11.10;31.00
78345;DHT22;67620;51.134;6.548;2023-02-28T09:27:05;9.60;32.40
78345;DHT22;67620;51.134;6.548;2023-02-28T09:29:32;8.90;33.20
78345;DHT22;67620;51.134;6.548;2023-02-28T09:31:57;8.80;34.20
78345;DHT22;67620;51.134;6.548;2023-02-28T09:34:25;8.70;34.00
78345;DHT22;67620;51.134;6.548;2023-02-28T09:36:50;8.50;33.80
78345;DHT22;67620;51.134;6.548;2023-02-28T09:39:20;7.70;34.20
78345;DHT22;67620;51.134;6.548;2023-02-28T09:41:49;7.60;34.40
78345;DHT22;67620;51.134;6.548;2023-02-28T09:44:40;7.80;35.30
78345;DHT22;67620;51.134;6.548;2023-02-28T09:50:07;7.80;35.30
78345;DHT22;67620;51.134;6.548;2023-02-28T09:52:36;7.80;35.80
78345;DHT22;67620;51.134;6.548;2023-02-28T09:55:22;7.30;34.90
78345;DHT22;67620;51.134;6.548;2023-02-28T09:57:51;7.30;36.30
78345;DHT22;67620;51.134;6.548;2023-02-28T10:00:22;7.00;36.30
78345;DHT22;67620;51.134;6.548;2023-02-28T10:02:54;7.00;36.50
78345;DHT22;67620;51.134;6.548;2023-02-28T10:05:27;7.00;36.30
78345;DHT22;67620;51.134;6.548;2023-02-28T10:08:14;7.00;35.90
78345;DHT22;67620;51.134;6.548;2023-02-28T10:10:48;7.00;36.60
78345;DHT22;67620;51.134;6.548;2023-02-28T10:15:52;7.20;36.80
78345;DHT22;67620;51.134;6.548;2023-02-28T10:18:23;7.00;37.50
78345;DHT22;67620;51.134;6.548;2023-02-28T10:20:50;7.00;36.90
78345;DHT22;67620;51.134;6.548;2023-02-28T10:23:42;7.10;37.10
78345;DHT22;67620;51.134;6.548;2023-02-28T10:26:13;7.20;37.80
78345;DHT22;67620;51.134;6.548;2023-02-28T10:28:39;6.90;36.50
78345;DHT22;67620;51.134;6.548;2023-02-28T10:31:05;6.80;37.50
78345;DHT22;67620;51.134;6.548;2023-02-28T10:33:35;7.00;38.00
78345;DHT22;67620;51.134;6.548;2023-02-28T10:36:01;6.90;38.10
78345;DHT22;67620;51.134;6.548;2023-02-28T10:38:38;7.10;38.20
78345;DHT22;67620;51.134;6.548;2023-02-28T10:41:07;7.20;37.70
78345;DHT22;67620;51.134;6.548;2023-02-28T10:43:33;7.20;38.60
78345;DHT22;67620;51.134;6.548;2023-02-28T10:46:05;7.30;37.00
78345;DHT22;67620;51.134;6.548;2023-02-28T10:48:40;7.20;38.10
78345;DHT22;67620;51.134;6.548;2023-02-28T10:51:11;7.30;37.80
78345;DHT22;67620;51.134;6.548;2023-02-28T10:53:50;7.20;38.10
78345;DHT22;67620;51.134;6.548;2023-02-28T10:56:20;7.00;38.00
78345;DHT22;67620;51.134;6.548;2023-02-28T11:00:05;7.00;37.30
78345;DHT22;67620;51.134;6.548;2023-02-28T11:01:49;7.00;38.30
78345;DHT22;67620;51.134;6.548;2023-02-28T11:07:01;6.90;37.40
78345;DHT22;67620;51.134;6.548;2023-02-28T11:09:30;6.70;38.30
78345;DHT22;67620;51.134;6.548;2023-02-28T11:11:57;6.90;39.40
78345;DHT22;67620;51.134;6.548;2023-02-28T11:14:32;7.10;38.10
78345;DHT22;67620;51.134;6.548;2023-02-28T11:17:11;7.00;38.50
78345;DHT22;67620;51.134;6.548;2023-02-28T11:19:45;7.10;38.60
78345;DHT22;67620;51.134;6.548;2023-02-28T11:22:20;7.10;38.10
78345;DHT22;67620;51.134;6.548;2023-02-28T11:24:50;7.10;37.60
78345;DHT22;67620;51.134;6.548;2023-02-28T11:27:50;6.70;38.30
78345;DHT22;67620;51.134;6.548;2023-02-28T11:30:39;6.70;39.10
78345;DHT22;67620;51.134;6.548;2023-02-28T11:33:37;6.80;39.10
78345;DHT22;67620;51.134;6.548;2023-02-28T11:36:12;6.70;38.80
78345;DHT22;67620;51.134;6.548;2023-02-28T11:38:38;6.70;38.70
78345;DHT22;67620;51.134;6.548;2023-02-28T11:50:40;6.80;39.20
78345;DHT22;67620;51.134;6.548;2023-02-28T11:53:02;6.90;38.00
78345;DHT22;67620;51.134;6.548;2023-02-28T11:55:37;7.00;38.40
78345;DHT22;67620;51.134;6.548;2023-02-28T12:04:22;7.00;38.40
78345;DHT22;67620;51.134;6.548;2023-02-28T12:07:22;6.80;39.20
78345;DHT22;67620;51.134;6.548;2023-02-28T12:10:04;6.70;39.80
78345;DHT22;67620;51.134;6.548;2023-02-28T12:17:59;6.60;39.20
78345;DHT22;67620;51.134;6.548;2023-02-28T12:20:32;6.60;39.60
78345;DHT22;67620;51.134;6.548;2023-02-28T12:28:15;6.80;38.70
78345;DHT22;67620;51.134;6.548;2023-02-28T12:33:48;7.00;39.30
78345;DHT22;67620;51.134;6.548;2023-02-28T12:36:19;6.80;39.40
78345;DHT22;67620;51.134;6.548;2023-02-28T12:39:01;6.70;39.30
78345;DHT22;67620;51.134;6.548;2023-02-28T12:41:51;6.70;39.00
78345;DHT22;67620;51.134;6.548;2023-02-28T12:44:35;6.80;40.70
78345;DHT22;67620;51.134;6.548;2023-02-28T12:47:05;6.90;40.40
78345;DHT22;67620;51.134;6.548;2023-02-28T12:49:38;6.90;39.20
78345;DHT22;67620;51.134;6.548;2023-02-28T12:52:05;6.80;40.10
78345;DHT22;67620;51.134;6.548;2023-02-28T12:54:44;6.70;39.30
78345;DHT22;67620;51.134;6.548;2023-02-28T13:00:10;6.90;39.30
78345;DHT22;67620;51.134;6.548;2023-02-28T13:11:28;6.80;38.90
78345;DHT22;67620;51.134;6.548;2023-02-28T13:13:58;6.70;41.10
78345;DHT22;67620;51.134;6.548;2023-02-28T13:16:24;6.80;41.00
78345;DHT22;67620;51.134;6.548;2023-02-28T13:18:50;6.80;41.00
78345;DHT22;67620;51.134;6.548;2023-02-28T13:21:29;6.90;40.00
78345;DHT22;67620;51.134;6.548;2023-02-28T13:23:57;6.90;38.80
78345;DHT22;67620;51.134;6.548;2023-02-28T13:29:24;6.80;40.40
78345;DHT22;67620;51.134;6.548;2023-02-28T13:35:11;6.90;39.60
78345;DHT22;67620;51.134;6.548;2023-02-28T13:37:35;6.90;39.40
78345;DHT22;67620;51.134;6.548;2023-02-28T13:42:39;6.70;41.20
78345;DHT22;67620;51.134;6.548;2023-02-28T13:48:03;6.90;40.60
78345;DHT22;67620;51.134;6.548;2023-02-28T13:50:31;6.90;40.20
78345;DHT22;67620;51.134;6.548;2023-02-28T13:55:52;6.90;39.30
78345;DHT22;67620;51.134;6.548;2023-02-28T14:07:07;6.70;40.90
78345;DHT22;67620;51.134;6.548;2023-02-28T14:09:19;6.70;39.20
78345;DHT22;67620;51.134;6.548;2023-02-28T14:11:46;6.60;39.30
78345;DHT22;67620;51.134;6.548;2023-02-28T14:17:00;6.70;40.10
78345;DHT22;67620;51.134;6.548;2023-02-28T14:19:29;6.70;40.90
78345;DHT22;67620;51.134;6.548;2023-02-28T14:24:51;6.80;39.70
78345;DHT22;67620;51.134;6.548;2023-02-28T14:27:42;6.80;39.70
78345;DHT22;67620;51.134;6.548;2023-02-28T14:38:42;6.90;40.90
78345;DHT22;67620;51.134;6.548;2023-02-28T14:41:19;6.90;40.20
78345;DHT22;67620;51.134;6.548;2023-02-28T14:43:51;6.80;40.80
78345;DHT22;67620;51.134;6.548;2023-02-28T14:46:17;6.80;40.90
78345;DHT22;67620;51.134;6.548;2023-02-28T14:48:46;6.70;40.20
78345;DHT22;67620;51.134;6.548;2023-02-28T14:51:17;6.70;40.30
78345;DHT22;67620;51.134;6.548;2023-02-28T14:53:43;6.70;40.20
78345;DHT22;67620;51.134;6.548;2023-02-28T14:56:23;6.70;40.60
78345;DHT22;67620;51.134;6.548;2023-02-28T14:58:55;6.70;41.00
78345;DHT22;67620;51.134;6.548;2023-02-28T15:01:22;6.70;40.40
78345;DHT22;67620;51.134;6.548;2023-02-28T15:03:48;6.70;40.20
78345;DHT22;67620;51.134;6.548;2023-02-28T15:06:21;6.70;40.50
78345;DHT22;67620;51.134;6.548;2023-02-28T15:09:07;6.70;39.90
78345;DHT22;67620;51.134;6.548;2023-02-28T15:11:33;6.60;40.60
78345;DHT22;67620;51.134;6.548;2023-02-28T15:14:00;6.60;40.30
78345;DHT22;67620;51.134;6.548;2023-02-28T15:16:38;6.60;40.10
78345;DHT22;67620;51.134;6.548;2023-02-28T15:19:12;6.60;40.90
78345;DHT22;67620;51.134;6.548;2023-02-28T15:21:42;6.60;41.10
78345;DHT22;67620;51.134;6.548;2023-02-28T15:26:57;6.60;41.10
78345;DHT22;67620;51.134;6.548;2023-02-28T15:29:25;6.60;41.60
78345;DHT22;67620;51.134;6.548;2023-02-28T15:32:06;6.50;41.70
78345;DHT22;67620;51.134;6.548;2023-02-28T15:34:38;6.50;40.70
78345;DHT22;67620;51.134;6.548;2023-02-28T15:39:52;6.50;41.00
78345;DHT22;67620;51.134;6.548;2023-02-28T15:42:19;6.40;41.20
78345;DHT22;67620;51.134;6.548;2023-02-28T15:44:44;6.40;41.40
78345;DHT22;67620;51.134;6.548;2023-02-28T15:47:22;6.40;41.90
78345;DHT22;67620;51.134;6.548;2023-02-28T15:50:01;6.30;41.30
78345;DHT22;67620;51.134;6.548;2023-02-28T15:52:29;6.30;42.20
78345;DHT22;67620;51.134;6.548;2023-02-28T15:54:59;6.40;42.10
78345;DHT22;67620;51.134;6.548;2023-02-28T15:57:32;6.30;41.40
78345;DHT22;67620;51.134;6.548;2023-02-28T16:00:01;6.30;41.50
78345;DHT22;67620;51.134;6.548;2023-02-28T16:02:34;6.30;42.00
78345;DHT22;67620;51.134;6.548;2023-02-28T16:07:32;6.30;42.30
78345;DHT22;67620;51.134;6.548;2023-02-28T16:09:59;6.20;42.30
78345;DHT22;67620;51.134;6.548;2023-02-28T16:12:30;6.10;42.50
78345;DHT22;67620;51.134;6.548;2023-02-28T16:14:58;6.10;42.70
78345;DHT22;67620;51.134;6.548;2023-02-28T16:17:29;6.10;42.80
78345;DHT22;67620;51.134;6.548;2023-02-28T16:19:55;6.10;43.00
78345;DHT22;67620;51.134;6.548;2023-02-28T16:22:21;6.10;43.30
78345;DHT22;67620;51.134;6.548;2023-02-28T16:24:47;6.00;43.20
78345;DHT22;67620;51.134;6.548;2023-02-28T16:27:28;6.00;43.30
78345;DHT22;67620;51.134;6.548;2023-02-28T16:29:55;5.90;43.30
78345;DHT22;67620;51.134;6.548;2023-02-28T16:32:21;5.80;43.30
78345;DHT22;67620;51.134;6.548;2023-02-28T16:34:46;5.80;43.40
78345;DHT22;67620;51.134;6.548;2023-02-28T16:37:15;5.80;43.70
78345;DHT22;67620;51.134;6.548;2023-02-28T16:39:42;5.80;43.60
78345;DHT22;67620;51.134;6.548;2023-02-28T16:42:14;5.70;43.70
78345;DHT22;67620;51.134;6.548;2023-02-28T16:44:41;5.70;44.00
78345;DHT22;67620;51.134;6.548;2023-02-28T16:47:10;5.70;44.00
78345;DHT22;67620;51.134;6.548;2023-02-28T16:49:35;5.70;44.40
78345;DHT22;67620;51.134;6.548;2023-02-28T16:52:01;5.70;44.40
78345;DHT22;67620;51.134;6.548;2023-02-28T16:54:27;5.60;44.80
78345;DHT22;67620;51.134;6.548;2023-02-28T16:56:52;5.60;45.20
78345;DHT22;67620;51.134;6.548;2023-02-28T16:59:26;5.60;45.50
78345;DHT22;67620;51.134;6.548;2023-02-28T17:01:53;5.60;45.70
78345;DHT22;67620;51.134;6.548;2023-02-28T17:04:19;5.50;45.90
78345;DHT22;67620;51.134;6.548;2023-02-28T17:06:45;5.50;46.00
78345;DHT22;67620;51.134;6.548;2023-02-28T17:09:20;5.40;46.10
78345;DHT22;67620;51.134;6.548;2023-02-28T17:11:46;5.40;46.00
78345;DHT22;67620;51.134;6.548;2023-02-28T17:14:12;5.40;46.40
78345;DHT22;67620;51.134;6.548;2023-02-28T17:16:38;5.40;46.50
78345;DHT22;67620;51.134;6.548;2023-02-28T17:19:15;5.30;46.70
78345;DHT22;67620;51.134;6.548;2023-02-28T17:21:42;5.30;46.60
78345;DHT22;67620;51.134;6.548;2023-02-28T17:24:08;5.30;46.80
78345;DHT22;67620;51.134;6.548;2023-02-28T17:26:34;5.30;46.80
78345;DHT22;67620;51.134;6.548;2023-02-28T17:29:00;5.20;47.00
78345;DHT22;67620;51.134;6.548;2023-02-28T17:31:27;5.20;47.00
78345;DHT22;67620;51.134;6.548;2023-02-28T17:33:53;5.20;47.10
78345;DHT22;67620;51.134;6.548;2023-02-28T17:36:24;5.10;47.10
78345;DHT22;67620;51.134;6.548;2023-02-28T17:38:52;5.10;47.30
78345;DHT22;67620;51.134;6.548;2023-02-28T17:41:18;5.10;47.20
78345;DHT22;67620;51.134;6.548;2023-02-28T17:43:44;5.00;47.20
78345;DHT22;67620;51.134;6.548;2023-02-28T17:46:23;5.00;47.30
78345;DHT22;67620;51.134;6.548;2023-02-28T17:48:50;5.00;47.40
78345;DHT22;67620;51.134;6.548;2023-02-28T17:51:18;5.00;47.50
78345;DHT22;67620;51.134;6.548;2023-02-28T17:53:44;4.90;47.50
78345;DHT22;67620;51.134;6.548;2023-02-28T17:56:15;4.90;47.50
78345;DHT22;67620;51.134;6.548;2023-02-28T17:58:40;4.90;47.90
78345;DHT22;67620;51.134;6.548;2023-02-28T18:01:06;4.90;47.60